Sunderland, Maryland
Current Conditions -  °F | °C
As of 2:58 AM on Friday 24 Oct 2014 (Local Time) from KADW Reporting Station
Clear Clear  
Wind Chill: 56°   Ceiling: Unl
Heat Index: 56°   Visibility: 10mi
Dew Point: 40°   Wind: 14mph
Humidity: 56%   Direction: 300°WNW
Pressure: 29.91"   Gusts: 21mph
Location:  38.67°N, 76.6°W
Report Text: KADW 240658Z AUTO 30012G18KT 10SM CLR 13/05 A2991 RMK AO2 SLP135 T01320046 $
Loading
Personal Weather Stations






























Interactive Weather Map
Tropical Storm Tracking
New forecast layout! Learn more

10-Day Weather Forecast

Advertisements
Track Severe Weather on mobile